createdAt,value
2018-09-24T00:00:18.897Z,9.60
2018-09-24T00:02:48.671Z,9.60
2018-09-24T00:05:18.502Z,9.60
2018-09-24T00:07:48.214Z,9.60
2018-09-24T00:10:17.922Z,9.60
2018-09-24T00:12:47.767Z,9.50
2018-09-24T00:15:17.452Z,9.60
2018-09-24T00:17:47.254Z,9.60
2018-09-24T00:20:16.957Z,9.70
2018-09-24T00:22:46.684Z,9.80
2018-09-24T00:25:16.406Z,9.80
2018-09-24T00:27:46.114Z,9.80
2018-09-24T00:30:15.827Z,9.80
2018-09-24T00:32:46.482Z,9.80
2018-09-24T00:35:16.167Z,9.70
2018-09-24T00:37:45.859Z,9.70
2018-09-24T00:40:15.639Z,9.70
2018-09-24T00:42:45.354Z,9.70
2018-09-24T00:45:15.115Z,9.80
2018-09-24T00:47:44.831Z,9.80
2018-09-24T00:50:14.523Z,9.80
2018-09-24T00:52:44.351Z,9.90
2018-09-24T00:55:14.059Z,9.80
2018-09-24T00:57:43.798Z,9.80
2018-09-24T01:00:13.465Z,9.70
2018-09-24T01:02:43.314Z,9.70
2018-09-24T01:05:13.014Z,9.60
2018-09-24T01:07:42.739Z,9.60
2018-09-24T01:10:12.467Z,9.50
2018-09-24T01:12:42.202Z,9.40
2018-09-24T01:15:11.890Z,9.30
2018-09-24T01:17:41.649Z,9.30
2018-09-24T01:20:12.114Z,9.30
2018-09-24T01:22:41.814Z,9.30
2018-09-24T01:25:11.538Z,9.20
2018-09-24T01:27:41.242Z,9.20
2018-09-24T01:30:10.914Z,9.10
2018-09-24T01:32:40.654Z,9.10
2018-09-24T01:35:10.428Z,9.00
2018-09-24T01:37:40.126Z,8.90
2018-09-24T01:40:09.850Z,8.90
2018-09-24T01:42:39.547Z,8.90
2018-09-24T01:45:09.239Z,8.90
2018-09-24T01:47:38.940Z,8.90
2018-09-24T01:50:08.642Z,8.80
2018-09-24T01:52:38.446Z,8.80
2018-09-24T01:55:08.246Z,8.70
2018-09-24T01:57:37.944Z,8.80
2018-09-24T02:00:07.685Z,8.80
2018-09-24T02:02:37.367Z,8.80
2018-09-24T02:05:12.945Z,8.70
2018-09-24T02:07:42.732Z,8.70
2018-09-24T02:10:12.461Z,8.60
2018-09-24T02:12:42.203Z,8.50
2018-09-24T02:15:11.918Z,8.50
2018-09-24T02:17:41.622Z,8.40
2018-09-24T02:20:11.314Z,8.40
2018-09-24T02:22:41.054Z,8.40
2018-09-24T02:25:10.770Z,8.40
2018-09-24T02:27:40.462Z,8.40
2018-09-24T02:30:13.978Z,8.30
2018-09-24T02:32:43.731Z,8.40
2018-09-24T02:35:13.698Z,8.40
2018-09-24T02:37:44.363Z,8.50
2018-09-24T02:40:20.023Z,8.40
2018-09-24T02:42:50.229Z,8.40
2018-09-24T02:45:20.211Z,8.40
2018-09-24T02:47:49.941Z,8.30
2018-09-24T02:50:19.827Z,8.30
2018-09-24T02:52:49.549Z,8.30
2018-09-24T02:55:19.471Z,8.20
2018-09-24T02:57:49.167Z,8.20
2018-09-24T03:00:21.645Z,8.20
2018-09-24T03:02:51.346Z,8.20
2018-09-24T03:05:21.041Z,8.30
2018-09-24T03:07:50.728Z,8.30
2018-09-24T03:10:20.403Z,8.30
2018-09-24T03:12:51.336Z,8.30
2018-09-24T03:15:21.647Z,8.20
2018-09-24T03:17:51.350Z,8.20
2018-09-24T03:20:21.057Z,8.20
2018-09-24T03:22:50.750Z,8.20
2018-09-24T03:25:20.446Z,8.20
2018-09-24T03:27:50.202Z,8.20
2018-09-24T03:30:19.898Z,8.30
2018-09-24T03:32:49.587Z,8.30
2018-09-24T03:35:19.263Z,8.20
2018-09-24T03:37:49.088Z,8.20
2018-09-24T03:40:18.759Z,8.20
2018-09-24T03:42:48.458Z,8.20
2018-09-24T03:45:18.247Z,8.10
2018-09-24T03:47:47.976Z,8.20
2018-09-24T03:50:17.658Z,8.20
2018-09-24T03:52:47.510Z,8.10
2018-09-24T03:55:17.236Z,8.10
2018-09-24T03:57:46.955Z,8.10
2018-09-24T04:00:16.683Z,8.00
2018-09-24T04:02:46.426Z,8.00
2018-09-24T04:05:21.678Z,8.00
2018-09-24T04:07:56.717Z,8.00
2018-09-24T04:10:31.714Z,8.00
2018-09-24T04:13:06.749Z,8.00
2018-09-24T04:15:41.787Z,8.10
2018-09-24T04:18:16.821Z,8.10
2018-09-24T04:20:52.006Z,8.10
2018-09-24T04:23:27.124Z,8.10
2018-09-24T04:26:02.314Z,8.10
2018-09-24T04:28:37.382Z,8.10
2018-09-24T04:31:12.507Z,8.20
2018-09-24T04:33:47.666Z,8.20
2018-09-24T04:36:22.702Z,8.20
2018-09-24T04:38:57.748Z,8.20
2018-09-24T04:41:32.937Z,8.20
2018-09-24T04:44:08.011Z,8.20
2018-09-24T04:46:43.122Z,8.10
2018-09-24T04:49:18.384Z,8.10
2018-09-24T04:51:53.437Z,8.00
2018-09-24T04:54:28.630Z,8.10
2018-09-24T04:57:03.784Z,8.10
2018-09-24T04:59:38.750Z,8.10
2018-09-24T05:02:13.787Z,8.10
2018-09-24T05:04:48.795Z,8.10
2018-09-24T05:07:23.998Z,8.10
2018-09-24T05:09:58.982Z,8.10
2018-09-24T05:12:34.053Z,8.10
2018-09-24T05:15:09.209Z,8.00
2018-09-24T05:17:44.228Z,8.00
2018-09-24T05:20:19.365Z,8.00
2018-09-24T05:22:54.461Z,8.00
2018-09-24T05:25:29.655Z,7.90
2018-09-24T05:28:04.787Z,8.00
2018-09-24T05:30:39.807Z,7.90
2018-09-24T05:33:14.945Z,7.90
2018-09-24T05:35:50.059Z,7.90
2018-09-24T05:38:25.198Z,8.00
2018-09-24T05:41:00.399Z,8.00
2018-09-24T05:43:35.434Z,8.10
2018-09-24T05:46:10.466Z,8.10
2018-09-24T05:48:45.566Z,8.10
2018-09-24T05:51:20.419Z,8.20
2018-09-24T05:53:55.527Z,8.20
2018-09-24T05:56:30.523Z,8.10
2018-09-24T05:59:05.714Z,8.10
2018-09-24T06:01:40.799Z,8.10
2018-09-24T06:04:15.938Z,8.20
2018-09-24T06:06:51.087Z,8.20
2018-09-24T06:09:26.248Z,8.20
2018-09-24T06:12:01.246Z,8.20
2018-09-24T06:14:36.391Z,8.10
2018-09-24T06:17:11.532Z,8.10
2018-09-24T06:19:46.547Z,8.10
2018-09-24T06:22:21.687Z,8.10
2018-09-24T06:24:56.886Z,8.10
2018-09-24T06:27:32.079Z,8.10
2018-09-24T06:30:07.139Z,8.10
2018-09-24T06:32:42.226Z,8.10
2018-09-24T06:35:17.438Z,8.20
2018-09-24T06:37:52.391Z,8.20
2018-09-24T06:40:27.455Z,8.20
2018-09-24T06:43:02.460Z,8.30
2018-09-24T06:45:37.518Z,8.40
2018-09-24T06:48:12.536Z,8.50
2018-09-24T06:50:47.626Z,8.60
2018-09-24T06:53:22.613Z,8.60
2018-09-24T06:55:57.560Z,8.50
2018-09-24T06:58:32.699Z,8.50
2018-09-24T07:01:07.755Z,8.50
2018-09-24T07:03:43.818Z,8.60
2018-09-24T07:06:18.876Z,8.60
2018-09-24T07:08:53.916Z,8.60
2018-09-24T07:11:28.990Z,8.50
2018-09-24T07:14:03.986Z,8.50
2018-09-24T07:16:39.044Z,8.50
2018-09-24T07:19:14.067Z,8.50
2018-09-24T07:21:49.123Z,8.50
2018-09-24T07:24:24.257Z,8.60
2018-09-24T07:26:59.380Z,8.70
2018-09-24T07:29:34.327Z,8.80
2018-09-24T07:32:09.370Z,8.90
2018-09-24T07:34:44.443Z,9.00
2018-09-24T07:37:19.491Z,9.10
2018-09-24T07:39:54.563Z,9.20
2018-09-24T07:42:29.607Z,9.20
2018-09-24T07:45:04.699Z,9.10
2018-09-24T07:47:40.870Z,9.10
2018-09-24T07:50:15.860Z,9.00
2018-09-24T07:52:51.108Z,9.00
2018-09-24T07:55:26.177Z,9.00
2018-09-24T07:58:01.222Z,9.10
2018-09-24T08:00:36.217Z,9.10
2018-09-24T08:03:11.277Z,9.20
2018-09-24T08:05:46.354Z,9.20
2018-09-24T08:08:21.378Z,9.30
2018-09-24T08:10:56.467Z,9.30
2018-09-24T08:13:31.511Z,9.30
2018-09-24T08:16:06.654Z,9.30
2018-09-24T08:18:41.796Z,9.20
2018-09-24T08:21:16.821Z,9.10
2018-09-24T08:23:51.855Z,9.20
2018-09-24T08:26:26.810Z,9.30
2018-09-24T08:29:01.894Z,9.30
2018-09-24T08:31:36.658Z,9.40
2018-09-24T08:34:11.822Z,9.40
2018-09-24T08:36:46.815Z,9.40
2018-09-24T08:39:21.803Z,9.30
2018-09-24T08:41:56.778Z,9.30
2018-09-24T08:44:31.883Z,9.30
2018-09-24T08:47:06.923Z,9.40
2018-09-24T08:49:42.001Z,9.50
2018-09-24T08:52:17.273Z,9.60
2018-09-24T08:54:52.454Z,9.80
2018-09-24T08:57:27.468Z,9.80
2018-09-24T09:00:02.744Z,9.80
2018-09-24T09:02:37.902Z,9.80
2018-09-24T09:05:13.663Z,10.00
2018-09-24T09:07:48.786Z,10.20
2018-09-24T09:10:24.010Z,10.30
2018-09-24T09:12:59.114Z,10.40
2018-09-24T09:15:34.131Z,10.30
2018-09-24T09:18:09.459Z,10.10
2018-09-24T09:20:44.483Z,10.10
2018-09-24T09:23:19.698Z,10.20
2018-09-24T09:25:54.878Z,10.40
2018-09-24T09:28:30.082Z,10.50
2018-09-24T09:31:05.192Z,10.50
2018-09-24T09:33:40.288Z,10.50
2018-09-24T09:36:15.276Z,10.50
2018-09-24T09:38:50.330Z,10.50
2018-09-24T09:41:25.542Z,10.60
2018-09-24T09:44:00.751Z,10.70
2018-09-24T09:46:36.101Z,10.70
2018-09-24T09:49:11.255Z,10.60
2018-09-24T09:51:46.262Z,10.60
2018-09-24T09:54:21.407Z,10.60
2018-09-24T09:56:56.462Z,10.60
2018-09-24T09:59:31.703Z,10.60
2018-09-24T10:02:06.700Z,10.50
2018-09-24T10:04:41.900Z,10.60
2018-09-24T10:07:16.962Z,10.70
2018-09-24T10:09:52.174Z,10.90
2018-09-24T10:12:27.227Z,11.00
2018-09-24T10:15:02.409Z,10.90
2018-09-24T10:17:37.467Z,10.90
2018-09-24T10:20:13.390Z,11.00
2018-09-24T10:22:48.887Z,11.40
2018-09-24T10:25:24.009Z,11.50
2018-09-24T10:27:59.187Z,11.50
2018-09-24T10:30:34.390Z,11.60
2018-09-24T10:33:09.259Z,11.80
2018-09-24T10:35:44.270Z,11.70
2018-09-24T10:38:19.427Z,11.50
2018-09-24T10:40:54.530Z,11.30
2018-09-24T10:43:29.591Z,11.30
2018-09-24T10:46:04.853Z,11.30
2018-09-24T10:48:39.946Z,11.50
2018-09-24T10:51:15.062Z,11.60
2018-09-24T10:53:50.122Z,11.50
2018-09-24T10:56:25.143Z,11.40
2018-09-24T10:59:00.324Z,11.30
2018-09-24T11:01:35.510Z,11.40
2018-09-24T11:04:10.607Z,11.50
2018-09-24T11:06:45.880Z,11.30
2018-09-24T11:09:21.075Z,11.10
2018-09-24T11:11:56.270Z,10.90
2018-09-24T11:14:32.291Z,11.10
2018-09-24T11:17:07.658Z,11.30
2018-09-24T11:19:42.651Z,11.60
2018-09-24T11:22:17.934Z,12.00
2018-09-24T11:24:53.027Z,12.20
2018-09-24T11:27:28.110Z,12.20
2018-09-24T11:30:03.134Z,12.20
2018-09-24T11:32:38.101Z,12.10
2018-09-24T11:35:13.778Z,12.00
2018-09-24T11:37:48.839Z,11.90
2018-09-24T11:40:23.841Z,11.90
2018-09-24T11:42:58.981Z,11.80
2018-09-24T11:45:34.058Z,11.90
2018-09-24T11:48:09.195Z,11.90
2018-09-24T11:50:44.388Z,11.90
2018-09-24T11:53:19.464Z,12.00
2018-09-24T11:55:54.622Z,12.10
2018-09-24T11:58:29.777Z,12.20
2018-09-24T12:01:04.888Z,12.20
2018-09-24T12:03:40.033Z,12.20
2018-09-24T12:06:15.032Z,12.40
2018-09-24T12:08:50.207Z,12.70
2018-09-24T12:11:25.219Z,12.90
2018-09-24T12:14:00.281Z,12.70
2018-09-24T12:16:35.352Z,12.50
2018-09-24T12:19:10.451Z,12.40
2018-09-24T12:21:45.691Z,12.40
2018-09-24T12:24:20.839Z,12.40
2018-09-24T12:26:55.962Z,12.70
2018-09-24T12:29:31.188Z,12.90
2018-09-24T12:32:06.449Z,12.80
2018-09-24T12:34:41.793Z,12.80
2018-09-24T12:37:17.010Z,12.50
2018-09-24T12:39:52.197Z,12.40
2018-09-24T12:42:27.199Z,12.40
2018-09-24T12:45:02.299Z,12.50
2018-09-24T12:47:37.394Z,12.80
2018-09-24T12:50:13.389Z,13.20
2018-09-24T12:52:48.303Z,13.40
2018-09-24T12:55:23.335Z,13.70
2018-09-24T12:57:58.361Z,14.00
2018-09-24T13:00:33.424Z,14.00
2018-09-24T13:03:08.487Z,13.90
2018-09-24T13:05:43.500Z,13.90
2018-09-24T13:08:18.499Z,14.00
2018-09-24T13:10:53.507Z,13.70
2018-09-24T13:13:28.611Z,13.50
2018-09-24T13:16:03.571Z,13.30
2018-09-24T13:18:38.640Z,15.60
2018-09-24T13:21:13.906Z,16.80
2018-09-24T13:23:48.958Z,16.90
2018-09-24T13:26:24.178Z,18.10
2018-09-24T13:28:59.298Z,17.30
2018-09-24T13:31:34.353Z,18.10
2018-09-24T13:34:09.519Z,17.40
2018-09-24T13:36:44.603Z,18.90
2018-09-24T13:39:19.847Z,17.80
2018-09-24T13:41:54.882Z,17.40
2018-09-24T13:44:30.023Z,16.60
2018-09-24T13:47:05.153Z,15.70
2018-09-24T13:49:40.089Z,15.00
2018-09-24T13:52:15.215Z,14.40
2018-09-24T13:54:50.342Z,14.00
2018-09-24T13:57:25.494Z,13.80
2018-09-24T14:00:00.629Z,14.40
2018-09-24T14:02:35.793Z,16.20
2018-09-24T14:05:11.147Z,18.50
2018-09-24T14:07:46.252Z,20.20
2018-09-24T14:10:21.342Z,22.30
2018-09-24T14:12:56.458Z,23.70
2018-09-24T14:15:32.071Z,24.60
2018-09-24T14:18:07.208Z,24.60
2018-09-24T14:20:42.282Z,24.70
2018-09-24T14:23:17.369Z,24.30
2018-09-24T14:25:52.587Z,23.10
2018-09-24T14:28:27.596Z,22.10
2018-09-24T14:31:02.694Z,21.00
2018-09-24T14:33:37.779Z,19.40
2018-09-24T14:36:13.201Z,19.10
2018-09-24T14:38:48.203Z,20.10
2018-09-24T14:41:23.377Z,21.20
2018-09-24T14:43:58.432Z,22.30
2018-09-24T14:46:33.506Z,22.70
2018-09-24T14:49:08.586Z,23.10
2018-09-24T14:51:43.656Z,23.70
2018-09-24T14:54:18.768Z,23.60
2018-09-24T14:56:53.870Z,23.40
2018-09-24T14:59:28.943Z,22.90
2018-09-24T15:02:04.035Z,23.00
2018-09-24T15:04:39.027Z,23.60
2018-09-24T15:07:14.114Z,24.30
2018-09-24T15:09:49.302Z,24.80
2018-09-24T15:12:24.612Z,25.40
2018-09-24T15:14:59.846Z,24.90
2018-09-24T15:17:35.868Z,25.40
2018-09-24T15:20:10.915Z,25.80
2018-09-24T15:22:45.904Z,25.90
2018-09-24T15:25:21.153Z,25.20
2018-09-24T15:27:56.291Z,23.90
2018-09-24T15:30:31.394Z,22.10
2018-09-24T15:33:06.567Z,21.60
2018-09-24T15:35:41.889Z,21.50
2018-09-24T15:38:16.899Z,20.70
2018-09-24T15:40:52.033Z,19.50
2018-09-24T15:43:27.368Z,18.70
2018-09-24T15:46:02.513Z,17.60
2018-09-24T15:48:37.428Z,16.80
2018-09-24T15:51:12.739Z,16.40
2018-09-24T15:53:47.877Z,16.60
2018-09-24T15:56:22.960Z,17.70
2018-09-24T15:58:58.234Z,18.90
2018-09-24T16:01:33.348Z,18.50
2018-09-24T16:04:08.637Z,17.60
2018-09-24T16:06:43.683Z,16.40
2018-09-24T16:09:18.763Z,15.40
2018-09-24T16:11:53.842Z,14.80
2018-09-24T16:14:28.943Z,14.30
2018-09-24T16:17:03.971Z,14.00
2018-09-24T16:19:39.024Z,13.80
2018-09-24T16:22:14.101Z,13.60
2018-09-24T16:24:50.439Z,13.40
2018-09-24T16:27:25.411Z,13.20
2018-09-24T16:30:00.535Z,13.00
2018-09-24T16:32:35.784Z,12.90
2018-09-24T16:35:11.132Z,12.80
2018-09-24T16:37:46.352Z,12.80
2018-09-24T16:40:21.386Z,12.60
2018-09-24T16:42:56.414Z,12.50
2018-09-24T16:45:31.639Z,12.40
2018-09-24T16:48:06.995Z,12.30
2018-09-24T16:50:42.263Z,12.20
2018-09-24T16:53:17.435Z,12.10
2018-09-24T16:55:52.493Z,12.00
2018-09-24T16:58:27.720Z,11.90
2018-09-24T17:01:02.769Z,11.90
2018-09-24T17:03:37.864Z,11.80
2018-09-24T17:06:12.873Z,11.80
2018-09-24T17:08:48.130Z,11.70
2018-09-24T17:11:23.130Z,11.70
2018-09-24T17:13:58.264Z,11.60
2018-09-24T17:16:34.012Z,11.50
2018-09-24T17:19:09.103Z,11.50
2018-09-24T17:21:44.290Z,11.50
2018-09-24T17:24:19.442Z,11.50
2018-09-24T17:26:54.566Z,11.60
2018-09-24T17:29:29.795Z,11.60
2018-09-24T17:32:04.863Z,11.50
2018-09-24T17:34:40.047Z,11.50
2018-09-24T17:37:15.088Z,11.50
2018-09-24T17:39:50.131Z,11.50
2018-09-24T17:42:25.174Z,11.50
2018-09-24T17:45:00.932Z,11.40
2018-09-24T17:47:36.027Z,11.40
2018-09-24T17:50:11.046Z,11.30
2018-09-24T17:52:46.048Z,11.20
2018-09-24T17:55:21.136Z,11.10
2018-09-24T17:57:56.269Z,11.10
2018-09-24T18:00:31.511Z,11.00
2018-09-24T18:03:06.712Z,11.00
2018-09-24T18:05:41.899Z,10.90
2018-09-24T18:08:17.135Z,10.90
2018-09-24T18:10:52.215Z,10.80
2018-09-24T18:13:27.350Z,10.80
2018-09-24T18:16:02.475Z,10.80
2018-09-24T18:18:37.616Z,10.80
2018-09-24T18:21:12.851Z,10.70
2018-09-24T18:23:47.880Z,10.70
2018-09-24T18:26:23.031Z,10.70
2018-09-24T18:28:58.266Z,10.60
2018-09-24T18:31:33.502Z,10.60
2018-09-24T18:34:08.570Z,10.50
2018-09-24T18:36:43.539Z,10.40
2018-09-24T18:39:18.604Z,10.20
2018-09-24T18:41:53.751Z,10.20
2018-09-24T18:44:28.782Z,10.10
2018-09-24T18:47:03.754Z,10.10
2018-09-24T18:49:38.927Z,10.00
2018-09-24T18:52:14.019Z,10.00
2018-09-24T18:54:49.217Z,10.00
2018-09-24T18:57:24.536Z,10.00
2018-09-24T18:59:59.611Z,10.00
2018-09-24T19:02:34.810Z,9.90
2018-09-24T19:05:09.770Z,9.90
2018-09-24T19:07:44.845Z,9.90
2018-09-24T19:10:19.860Z,9.70
2018-09-24T19:12:54.904Z,9.50
2018-09-24T19:15:30.051Z,9.40
2018-09-24T19:18:05.331Z,9.20
2018-09-24T19:20:40.490Z,9.00
2018-09-24T19:23:15.566Z,8.80
2018-09-24T19:25:50.643Z,8.70
2018-09-24T19:28:25.842Z,8.60
2018-09-24T19:31:00.998Z,8.50
2018-09-24T19:33:36.237Z,8.40
2018-09-24T19:36:11.485Z,8.40
2018-09-24T19:38:46.589Z,8.30
2018-09-24T19:41:21.574Z,8.20
2018-09-24T19:43:56.560Z,8.10
2018-09-24T19:46:31.613Z,8.10
2018-09-24T19:49:06.746Z,8.10
2018-09-24T19:51:42.120Z,8.20
2018-09-24T19:54:18.258Z,8.20
2018-09-24T19:56:53.351Z,8.20
2018-09-24T19:59:28.428Z,8.20
2018-09-24T20:02:03.562Z,8.20
2018-09-24T20:04:38.754Z,8.10
2018-09-24T20:07:13.770Z,8.10
2018-09-24T20:09:48.861Z,8.10
2018-09-24T20:12:24.226Z,8.00
2018-09-24T20:14:59.197Z,7.80
2018-09-24T20:17:34.230Z,7.70
2018-09-24T20:20:09.301Z,7.60
2018-09-24T20:22:45.851Z,7.60
2018-09-24T20:25:20.776Z,7.50
2018-09-24T20:27:55.933Z,7.50
2018-09-24T20:30:31.122Z,7.60
2018-09-24T20:33:06.282Z,7.70
2018-09-24T20:35:41.441Z,7.80
2018-09-24T20:38:16.545Z,7.90
2018-09-24T20:40:51.587Z,8.00
2018-09-24T20:43:26.816Z,8.00
2018-09-24T20:46:01.867Z,8.10
2018-09-24T20:48:37.006Z,8.10
2018-09-24T20:51:12.341Z,7.90
2018-09-24T20:53:47.410Z,7.70
2018-09-24T20:56:22.654Z,7.60
2018-09-24T20:58:57.654Z,7.50
2018-09-24T21:01:32.776Z,7.50
2018-09-24T21:04:07.875Z,7.50
2018-09-24T21:06:43.057Z,7.40
2018-09-24T21:09:18.202Z,7.40
2018-09-24T21:11:53.166Z,7.30
2018-09-24T21:14:28.338Z,7.40
2018-09-24T21:17:03.610Z,7.50
2018-09-24T21:19:38.580Z,7.40
2018-09-24T21:22:13.563Z,7.40
2018-09-24T21:24:48.723Z,7.40
2018-09-24T21:27:23.777Z,7.40
2018-09-24T21:29:58.803Z,7.30
2018-09-24T21:32:33.993Z,7.20
2018-09-24T21:35:09.642Z,7.10
2018-09-24T21:37:44.711Z,7.00
2018-09-24T21:40:19.878Z,7.00
2018-09-24T21:42:54.994Z,6.90
2018-09-24T21:45:30.145Z,6.80
2018-09-24T21:48:05.562Z,6.80
2018-09-24T21:50:41.351Z,6.80
2018-09-24T21:53:18.638Z,6.80
2018-09-24T21:55:54.486Z,6.80
2018-09-24T21:58:29.648Z,6.80
2018-09-24T22:01:04.866Z,6.90
2018-09-24T22:03:39.964Z,6.90
2018-09-24T22:06:15.091Z,6.90
2018-09-24T22:08:50.126Z,6.80
2018-09-24T22:11:25.175Z,6.80
2018-09-24T22:14:00.379Z,6.80
2018-09-24T22:16:35.468Z,6.90
2018-09-24T22:19:10.654Z,6.90
2018-09-24T22:21:46.780Z,6.90
2018-09-24T22:24:21.775Z,6.90
2018-09-24T22:26:56.741Z,7.00
2018-09-24T22:29:31.759Z,7.10
2018-09-24T22:32:07.322Z,7.10
2018-09-24T22:34:42.405Z,7.20
2018-09-24T22:37:17.604Z,7.20
2018-09-24T22:39:53.577Z,7.20
2018-09-24T22:42:28.697Z,7.20
2018-09-24T22:45:03.837Z,7.20
2018-09-24T22:47:39.028Z,7.20
2018-09-24T22:50:14.238Z,7.20
2018-09-24T22:52:49.407Z,7.20
2018-09-24T22:55:24.617Z,7.10
2018-09-24T22:57:59.756Z,7.10
2018-09-24T23:00:34.811Z,7.00
2018-09-24T23:03:10.218Z,6.90
2018-09-24T23:05:45.494Z,6.80
2018-09-24T23:08:20.742Z,6.70
2018-09-24T23:10:55.939Z,6.50
2018-09-24T23:13:31.114Z,6.40
2018-09-24T23:16:06.195Z,6.30
2018-09-24T23:18:41.307Z,6.30
2018-09-24T23:21:17.188Z,6.30
2018-09-24T23:23:52.362Z,6.30
2018-09-24T23:26:27.633Z,6.20
2018-09-24T23:29:02.802Z,6.10
2018-09-24T23:31:38.023Z,6.10
2018-09-24T23:34:13.234Z,6.20
2018-09-24T23:36:48.371Z,6.20
2018-09-24T23:39:23.514Z,6.20
2018-09-24T23:41:58.555Z,6.20
2018-09-24T23:44:34.483Z,6.10
2018-09-24T23:47:10.137Z,6.10
2018-09-24T23:49:45.394Z,6.10
2018-09-24T23:52:20.399Z,6.20
2018-09-24T23:54:55.662Z,6.20
2018-09-24T23:57:30.786Z,6.20
